createdAt,value
2023-06-15T00:01:49.878Z,15.97
2023-06-15T00:04:17.672Z,15.95
2023-06-15T00:06:44.958Z,15.95
2023-06-15T00:09:11.815Z,15.96
2023-06-15T00:11:38.407Z,15.92
2023-06-15T00:14:04.960Z,15.90
2023-06-15T00:16:33.026Z,15.76
2023-06-15T00:19:00.224Z,15.69
2023-06-15T00:21:27.495Z,15.59
2023-06-15T00:23:54.073Z,15.50
2023-06-15T00:26:20.912Z,15.62
2023-06-15T00:28:47.396Z,15.71
2023-06-15T00:31:13.911Z,15.63
2023-06-15T00:33:40.656Z,15.75
2023-06-15T00:36:09.478Z,15.84
2023-06-15T00:38:36.556Z,15.83
2023-06-15T00:41:03.065Z,15.67
2023-06-15T00:43:29.615Z,15.71
2023-06-15T00:45:56.164Z,15.61
2023-06-15T00:48:22.772Z,15.82
2023-06-15T00:50:49.268Z,15.81
2023-06-15T00:53:16.032Z,15.96
2023-06-15T00:55:43.054Z,15.97
2023-06-15T00:58:10.590Z,15.85
2023-06-15T01:00:38.679Z,15.84
2023-06-15T01:03:07.510Z,15.78
2023-06-15T01:05:37.859Z,15.70
2023-06-15T01:08:08.444Z,15.68
2023-06-15T01:10:35.758Z,15.65
2023-06-15T01:13:05.107Z,15.61
2023-06-15T01:15:32.045Z,15.74
2023-06-15T01:17:59.432Z,15.52
2023-06-15T01:20:41.937Z,15.40
2023-06-15T01:23:34.477Z,15.47
2023-06-15T01:26:06.618Z,15.47
2023-06-15T01:28:34.997Z,15.51
2023-06-15T01:31:01.871Z,15.44
2023-06-15T01:33:28.957Z,15.28
2023-06-15T01:35:55.447Z,15.27
2023-06-15T01:38:25.081Z,15.22
2023-06-15T01:40:53.228Z,15.11
2023-06-15T01:43:23.346Z,15.23
2023-06-15T01:45:55.722Z,15.29
2023-06-15T01:48:22.580Z,15.26
2023-06-15T01:50:50.581Z,15.34
2023-06-15T01:53:17.222Z,15.25
2023-06-15T01:55:43.879Z,15.29
2023-06-15T01:58:12.553Z,15.09
2023-06-15T02:00:39.043Z,15.14
2023-06-15T02:03:05.696Z,15.06
2023-06-15T02:05:33.390Z,15.08
2023-06-15T02:08:00.039Z,15.20
2023-06-15T02:10:26.686Z,14.87
2023-06-15T02:12:53.250Z,15.11
2023-06-15T02:15:20.297Z,15.09
2023-06-15T02:17:47.338Z,15.05
2023-06-15T02:20:14.175Z,15.04
2023-06-15T02:22:41.325Z,14.97
2023-06-15T02:25:09.254Z,15.10
2023-06-15T02:27:36.173Z,14.94
2023-06-15T02:30:03.355Z,14.87
2023-06-15T02:32:36.241Z,14.74
2023-06-15T02:35:07.487Z,14.98
2023-06-15T02:37:34.048Z,14.82
2023-06-15T02:40:01.070Z,15.00
2023-06-15T02:42:27.679Z,14.92
2023-06-15T02:44:54.189Z,14.94
2023-06-15T02:47:20.747Z,15.02
2023-06-15T02:49:47.442Z,14.85
2023-06-15T02:52:13.987Z,14.91
2023-06-15T02:54:40.703Z,14.86
2023-06-15T02:57:07.954Z,14.77
2023-06-15T02:59:35.135Z,14.75
2023-06-15T03:02:03.490Z,14.79
2023-06-15T03:04:30.071Z,15.01
2023-06-15T03:06:57.676Z,14.88
2023-06-15T03:09:24.947Z,14.86
2023-06-15T03:11:52.134Z,14.75
2023-06-15T03:14:22.141Z,14.79
2023-06-15T03:16:49.050Z,14.67
2023-06-15T03:19:19.064Z,14.86
2023-06-15T03:21:48.333Z,14.87
2023-06-15T03:24:15.167Z,14.51
2023-06-15T03:26:44.593Z,14.54
2023-06-15T03:29:12.049Z,14.59
2023-06-15T03:31:45.361Z,14.68
2023-06-15T03:34:11.916Z,14.72
2023-06-15T03:36:38.434Z,14.95
2023-06-15T03:39:05.296Z,14.76
2023-06-15T03:41:31.831Z,14.58
2023-06-15T03:43:58.341Z,14.79
2023-06-15T03:46:24.898Z,14.89
2023-06-15T03:48:51.398Z,14.99
2023-06-15T03:51:17.900Z,15.23
2023-06-15T03:53:45.142Z,15.02
2023-06-15T03:56:11.721Z,14.73
2023-06-15T03:58:38.286Z,15.08
2023-06-15T04:01:07.941Z,14.81
2023-06-15T04:03:37.473Z,15.03
2023-06-15T04:06:05.508Z,15.37
2023-06-15T04:08:33.279Z,15.46
2023-06-15T04:11:00.573Z,15.38
2023-06-15T04:13:27.237Z,15.25
2023-06-15T04:15:54.591Z,14.97
2023-06-15T04:18:22.273Z,15.24
2023-06-15T04:20:48.808Z,15.24
2023-06-15T04:23:15.402Z,15.75
2023-06-15T04:25:41.994Z,15.66
2023-06-15T04:28:11.735Z,15.70
2023-06-15T04:30:41.616Z,15.67
2023-06-15T04:33:14.003Z,15.30
2023-06-15T04:35:41.731Z,15.40
2023-06-15T04:38:08.796Z,15.90
2023-06-15T04:40:35.350Z,15.70
2023-06-15T04:43:04.245Z,15.48
2023-06-15T04:45:30.998Z,15.54
2023-06-15T04:47:57.567Z,15.86
2023-06-15T04:50:24.818Z,16.19
2023-06-15T04:52:51.543Z,16.24
2023-06-15T04:55:18.619Z,15.93
2023-06-15T04:57:45.548Z,16.09
2023-06-15T05:00:14.699Z,16.43
2023-06-15T05:02:41.402Z,16.48
2023-06-15T05:05:08.297Z,16.32
2023-06-15T05:07:34.872Z,16.24
2023-06-15T05:10:01.726Z,16.68
2023-06-15T05:12:28.220Z,16.73
2023-06-15T05:14:54.736Z,16.86
2023-06-15T05:17:21.558Z,16.96
2023-06-15T05:19:48.837Z,16.65
2023-06-15T05:22:15.723Z,16.78
2023-06-15T05:24:42.242Z,16.65
2023-06-15T05:27:09.704Z,17.43
2023-06-15T05:29:37.549Z,17.75
2023-06-15T05:32:04.397Z,17.69
2023-06-15T05:34:30.921Z,17.64
2023-06-15T05:36:58.525Z,18.24
2023-06-15T05:39:26.348Z,18.45
2023-06-15T05:41:52.930Z,18.68
2023-06-15T05:44:19.434Z,18.76
2023-06-15T05:46:46.215Z,18.51
2023-06-15T05:49:12.795Z,18.46
2023-06-15T05:51:39.333Z,18.73
2023-06-15T05:54:05.929Z,17.87
2023-06-15T05:56:32.509Z,17.78
2023-06-15T05:58:59.111Z,17.05
2023-06-15T06:01:25.777Z,17.75
2023-06-15T06:03:52.290Z,18.06
2023-06-15T06:06:18.986Z,18.09
2023-06-15T06:08:45.594Z,17.82
2023-06-15T06:11:12.116Z,17.76
2023-06-15T06:13:38.652Z,17.96
2023-06-15T06:16:05.613Z,18.22
2023-06-15T06:18:32.359Z,18.29
2023-06-15T06:20:58.971Z,18.39
2023-06-15T06:23:25.526Z,18.10
2023-06-15T06:25:52.114Z,18.14
2023-06-15T06:28:18.658Z,18.60
2023-06-15T06:30:45.171Z,18.80
2023-06-15T06:33:11.759Z,18.79
2023-06-15T06:35:38.369Z,18.86
2023-06-15T06:38:05.128Z,19.22
2023-06-15T06:40:32.145Z,19.67
2023-06-15T06:42:58.674Z,20.07
2023-06-15T06:45:27.497Z,20.59
2023-06-15T06:47:55.894Z,20.75
2023-06-15T06:50:22.431Z,20.61
2023-06-15T06:52:48.944Z,20.25
2023-06-15T06:55:15.879Z,20.34
2023-06-15T06:57:42.729Z,20.47
2023-06-15T07:00:11.783Z,20.51
2023-06-15T07:02:38.549Z,20.71
2023-06-15T07:05:05.433Z,20.20
2023-06-15T07:07:32.066Z,20.19
2023-06-15T07:09:58.671Z,20.70
2023-06-15T07:12:25.252Z,20.98
2023-06-15T07:14:52.134Z,20.87
2023-06-15T07:17:18.703Z,21.35
2023-06-15T07:19:45.263Z,21.29
2023-06-15T07:22:11.883Z,21.39
2023-06-15T07:24:38.599Z,20.78
2023-06-15T07:27:05.660Z,20.97
2023-06-15T07:29:32.200Z,20.46
2023-06-15T07:31:58.743Z,20.87
2023-06-15T07:34:25.598Z,21.22
2023-06-15T07:36:52.188Z,21.19
2023-06-15T07:39:18.942Z,21.39
2023-06-15T07:41:45.522Z,21.66
2023-06-15T07:44:13.611Z,22.45
2023-06-15T07:46:40.992Z,21.90
2023-06-15T07:49:08.287Z,21.86
2023-06-15T07:51:43.403Z,22.18
2023-06-15T07:54:14.788Z,21.64
2023-06-15T07:56:41.449Z,21.38
2023-06-15T07:59:08.207Z,21.44
2023-06-15T08:01:34.865Z,21.48
2023-06-15T08:04:01.776Z,21.31
2023-06-15T08:06:30.012Z,21.00
2023-06-15T08:08:56.512Z,21.33
2023-06-15T08:11:23.110Z,21.72
2023-06-15T08:13:49.740Z,22.16
2023-06-15T08:16:16.270Z,22.46
2023-06-15T08:18:42.818Z,21.75
2023-06-15T08:21:09.400Z,22.20
2023-06-15T08:23:35.979Z,22.47
2023-06-15T08:26:04.573Z,22.41
2023-06-15T08:28:38.141Z,22.57
2023-06-15T08:31:14.583Z,22.34
2023-06-15T08:33:41.186Z,22.80
2023-06-15T08:36:11.756Z,22.30
2023-06-15T08:38:38.393Z,22.82
2023-06-15T08:41:05.422Z,22.76
2023-06-15T08:43:32.336Z,23.04
2023-06-15T08:45:59.780Z,23.30
2023-06-15T08:48:27.765Z,23.48
2023-06-15T08:50:54.919Z,22.85
2023-06-15T08:53:23.589Z,23.27
2023-06-15T08:55:50.315Z,23.94
2023-06-15T08:58:17.037Z,23.43
2023-06-15T09:00:43.549Z,23.23
2023-06-15T09:03:11.245Z,22.83
2023-06-15T09:05:37.863Z,22.60
2023-06-15T09:08:05.080Z,22.90
2023-06-15T09:10:37.157Z,22.85
2023-06-15T09:13:04.117Z,22.20
2023-06-15T09:15:32.011Z,22.53
2023-06-15T09:18:03.621Z,22.44
2023-06-15T09:20:32.291Z,22.13
2023-06-15T09:23:03.367Z,21.86
2023-06-15T09:25:36.680Z,22.18
2023-06-15T09:28:08.432Z,21.96
2023-06-15T09:30:41.595Z,21.94
2023-06-15T09:33:16.281Z,22.21
2023-06-15T09:36:03.670Z,22.45
2023-06-15T09:38:33.936Z,23.05
2023-06-15T09:41:04.830Z,23.09
2023-06-15T09:43:35.589Z,23.41
2023-06-15T09:46:12.910Z,24.14
2023-06-15T09:48:40.334Z,24.40
2023-06-15T09:51:07.614Z,24.14
2023-06-15T09:53:34.805Z,24.40
2023-06-15T09:56:01.831Z,24.24
2023-06-15T09:58:28.647Z,24.60
2023-06-15T10:01:04.598Z,24.68
2023-06-15T10:03:34.242Z,24.46
2023-06-15T10:06:05.674Z,23.51
2023-06-15T10:08:34.935Z,24.33
2023-06-15T10:11:01.884Z,24.21
2023-06-15T10:13:52.548Z,23.62
2023-06-15T10:16:21.666Z,23.86
2023-06-15T10:18:51.833Z,23.32
2023-06-15T10:21:21.042Z,23.12
2023-06-15T10:23:51.144Z,22.86
2023-06-15T10:26:25.651Z,22.98
2023-06-15T10:29:01.483Z,22.85
2023-06-15T10:32:06.699Z,22.56
2023-06-15T10:34:46.163Z,22.74
2023-06-15T10:37:50.464Z,22.32
2023-06-15T10:40:31.401Z,22.45
2023-06-15T10:43:06.657Z,22.76
2023-06-15T10:45:59.557Z,22.64
2023-06-15T10:48:31.022Z,23.25
2023-06-15T10:51:08.834Z,23.54
2023-06-15T10:53:41.833Z,23.86
2023-06-15T10:56:22.046Z,23.68
2023-06-15T10:59:03.423Z,23.74
2023-06-15T11:01:33.315Z,23.81
2023-06-15T11:04:01.640Z,24.14
2023-06-15T11:06:33.952Z,24.42
2023-06-15T11:09:11.435Z,24.32
2023-06-15T11:11:39.297Z,25.15
2023-06-15T11:14:22.366Z,25.46
2023-06-15T11:17:05.261Z,25.06
2023-06-15T11:19:32.711Z,25.07
2023-06-15T11:22:03.325Z,24.90
2023-06-15T11:24:38.428Z,24.22
2023-06-15T11:27:13.774Z,24.54
2023-06-15T11:29:44.575Z,24.83
2023-06-15T11:32:11.603Z,25.56
2023-06-15T11:34:39.750Z,26.43
2023-06-15T11:37:08.033Z,26.04
2023-06-15T11:39:34.701Z,26.76
2023-06-15T11:42:02.130Z,26.62
2023-06-15T11:44:28.849Z,26.88
2023-06-15T11:47:00.625Z,26.00
2023-06-15T11:49:35.143Z,25.65
2023-06-15T11:52:01.754Z,26.31
2023-06-15T11:54:45.084Z,26.88
2023-06-15T11:57:17.036Z,27.20
2023-06-15T11:59:43.598Z,27.23
2023-06-15T12:02:12.061Z,27.55
2023-06-15T12:04:38.970Z,26.89
2023-06-15T12:07:06.428Z,27.29
2023-06-15T12:09:33.329Z,26.84
2023-06-15T12:11:59.875Z,28.11
2023-06-15T12:14:26.381Z,27.17
2023-06-15T12:16:53.960Z,26.00
2023-06-15T12:19:21.813Z,26.05
2023-06-15T12:21:48.994Z,26.88
2023-06-15T12:24:21.264Z,26.20
2023-06-15T12:26:58.713Z,26.02
2023-06-15T12:29:26.427Z,26.71
2023-06-15T12:31:57.054Z,27.35
2023-06-15T12:34:30.257Z,28.19
2023-06-15T12:36:57.011Z,28.08
2023-06-15T12:39:31.281Z,27.46
2023-06-15T12:42:02.543Z,27.20
2023-06-15T12:44:31.142Z,26.08
2023-06-15T12:46:57.718Z,26.69
2023-06-15T12:49:24.181Z,26.36
2023-06-15T12:51:52.094Z,25.92
2023-06-15T12:54:19.788Z,25.49
2023-06-15T12:56:46.563Z,25.32
2023-06-15T12:59:13.211Z,25.63
2023-06-15T13:01:39.831Z,25.63
2023-06-15T13:04:07.156Z,25.27
2023-06-15T13:06:34.274Z,26.07
2023-06-15T13:09:00.805Z,26.60
2023-06-15T13:11:29.208Z,26.33
2023-06-15T13:13:55.785Z,25.82
2023-06-15T13:16:22.430Z,26.33
2023-06-15T13:18:57.132Z,26.26
2023-06-15T13:21:23.808Z,25.91
2023-06-15T13:23:53.436Z,25.49
2023-06-15T13:26:20.304Z,25.67
2023-06-15T13:28:46.823Z,25.80
2023-06-15T13:31:13.778Z,25.25
2023-06-15T13:33:41.340Z,24.98
2023-06-15T13:36:07.985Z,24.65
2023-06-15T13:38:34.505Z,24.71
2023-06-15T13:41:01.240Z,24.66
2023-06-15T13:43:27.859Z,25.03
2023-06-15T13:45:54.487Z,25.74
2023-06-15T13:48:21.108Z,25.45
2023-06-15T13:50:53.109Z,25.22
2023-06-15T13:53:19.798Z,25.76
2023-06-15T13:55:46.832Z,25.52
2023-06-15T13:58:13.527Z,24.95
2023-06-15T14:00:40.337Z,25.59
2023-06-15T14:03:07.800Z,25.24
2023-06-15T14:05:37.046Z,25.50
2023-06-15T14:08:03.936Z,25.40
2023-06-15T14:10:33.681Z,25.03
2023-06-15T14:13:03.209Z,25.19
2023-06-15T14:15:32.238Z,25.81
2023-06-15T14:17:59.518Z,26.20
2023-06-15T14:20:26.384Z,26.63
2023-06-15T14:22:56.307Z,26.33
2023-06-15T14:25:25.129Z,25.22
2023-06-15T14:27:51.787Z,26.09
2023-06-15T14:30:18.687Z,26.52
2023-06-15T14:32:45.922Z,27.39
2023-06-15T14:35:12.780Z,27.16
2023-06-15T14:37:39.427Z,26.57
2023-06-15T14:40:06.400Z,26.25
2023-06-15T14:42:47.992Z,27.66
2023-06-15T14:45:15.579Z,27.79
2023-06-15T14:47:47.502Z,27.13
2023-06-15T14:50:14.625Z,27.45
2023-06-15T14:52:41.802Z,27.47
2023-06-15T14:55:08.748Z,26.93
2023-06-15T14:57:35.570Z,26.46
2023-06-15T15:00:02.294Z,25.75
2023-06-15T15:02:41.664Z,25.23
2023-06-15T15:05:11.872Z,25.40
2023-06-15T15:07:43.552Z,25.83
2023-06-15T15:10:16.565Z,25.86
2023-06-15T15:12:49.197Z,25.87
2023-06-15T15:15:18.978Z,25.80
2023-06-15T15:17:45.545Z,25.58
2023-06-15T15:20:12.230Z,25.83
2023-06-15T15:22:40.621Z,24.89
2023-06-15T15:25:07.464Z,25.23
2023-06-15T15:27:33.986Z,24.87
2023-06-15T15:30:00.576Z,25.20
2023-06-15T15:32:27.136Z,25.65
2023-06-15T15:34:53.720Z,25.82
2023-06-15T15:37:20.379Z,25.70
2023-06-15T15:39:46.922Z,25.75
2023-06-15T15:42:14.476Z,25.73
2023-06-15T15:44:41.178Z,25.47
2023-06-15T15:47:07.844Z,25.49
2023-06-15T15:49:34.534Z,25.45
2023-06-15T15:52:01.034Z,25.27
2023-06-15T15:54:27.571Z,25.31
2023-06-15T15:56:54.213Z,25.26
2023-06-15T15:59:22.856Z,25.47
2023-06-15T16:01:50.144Z,25.23
2023-06-15T16:04:17.248Z,25.45
2023-06-15T16:06:45.879Z,25.79
2023-06-15T16:09:12.590Z,25.97
2023-06-15T16:11:39.122Z,25.44
2023-06-15T16:14:05.957Z,25.59
2023-06-15T16:16:32.738Z,25.75
2023-06-15T16:18:59.293Z,25.76
2023-06-15T16:21:26.083Z,25.57
2023-06-15T16:23:52.757Z,25.15
2023-06-15T16:26:19.542Z,25.06
2023-06-15T16:28:47.932Z,25.13
2023-06-15T16:31:14.584Z,24.93
2023-06-15T16:33:41.119Z,25.48
2023-06-15T16:36:07.799Z,25.34
2023-06-15T16:38:34.302Z,25.08
2023-06-15T16:41:00.843Z,25.06
2023-06-15T16:43:27.321Z,25.45
2023-06-15T16:45:53.917Z,25.72
2023-06-15T16:48:20.525Z,25.61
2023-06-15T16:50:47.106Z,25.69
2023-06-15T16:53:14.106Z,25.53
2023-06-15T16:55:40.721Z,25.47
2023-06-15T16:58:07.233Z,25.22
2023-06-15T17:00:33.982Z,25.32
2023-06-15T17:03:00.703Z,25.06
2023-06-15T17:05:27.353Z,25.13
2023-06-15T17:07:53.832Z,25.26
2023-06-15T17:10:20.653Z,25.22
2023-06-15T17:12:47.429Z,25.11
2023-06-15T17:15:13.982Z,25.24
2023-06-15T17:17:41.745Z,24.97
2023-06-15T17:20:09.490Z,25.31
2023-06-15T17:22:38.458Z,25.16
2023-06-15T17:25:05.525Z,25.16
2023-06-15T17:27:32.021Z,25.23
2023-06-15T17:29:58.566Z,24.85
2023-06-15T17:32:26.085Z,24.83
2023-06-15T17:34:52.648Z,24.69
2023-06-15T17:37:19.192Z,24.57
2023-06-15T17:39:45.744Z,24.89
2023-06-15T17:42:13.094Z,24.38
2023-06-15T17:44:39.730Z,24.60
2023-06-15T17:47:06.345Z,24.62
2023-06-15T17:49:32.864Z,24.93
2023-06-15T17:51:59.658Z,24.75
2023-06-15T17:54:26.168Z,24.95
2023-06-15T17:56:52.676Z,25.07
2023-06-15T17:59:19.268Z,24.90
2023-06-15T18:01:45.878Z,24.57
2023-06-15T18:04:13.245Z,24.21
2023-06-15T18:06:40.443Z,24.53
2023-06-15T18:09:07.810Z,24.47
2023-06-15T18:11:34.811Z,24.41
2023-06-15T18:14:01.319Z,24.65
2023-06-15T18:16:29.367Z,24.26
2023-06-15T18:18:56.037Z,24.36
2023-06-15T18:21:23.102Z,24.35
2023-06-15T18:23:49.652Z,24.42
2023-06-15T18:26:16.710Z,24.50
2023-06-15T18:28:43.192Z,24.64
2023-06-15T18:31:09.687Z,24.34
2023-06-15T18:33:36.220Z,24.20
2023-06-15T18:36:03.055Z,24.25
2023-06-15T18:38:29.887Z,24.40
2023-06-15T18:40:56.633Z,24.59
2023-06-15T18:43:23.157Z,24.31
2023-06-15T18:45:49.776Z,24.50
2023-06-15T18:48:16.678Z,24.39
2023-06-15T18:50:43.333Z,24.14
2023-06-15T18:53:09.818Z,24.30
2023-06-15T18:55:36.637Z,24.48
2023-06-15T18:58:04.772Z,24.08
2023-06-15T19:00:31.398Z,24.23
2023-06-15T19:02:58.027Z,23.83
2023-06-15T19:05:24.608Z,23.86
2023-06-15T19:07:51.120Z,24.11
2023-06-15T19:10:17.722Z,23.93
2023-06-15T19:12:44.307Z,24.15
2023-06-15T19:15:12.842Z,23.86
2023-06-15T19:17:39.899Z,23.81
2023-06-15T19:20:07.474Z,23.65
2023-06-15T19:22:33.993Z,23.47
2023-06-15T19:25:00.516Z,23.45
2023-06-15T19:27:27.105Z,23.19
2023-06-15T19:29:54.068Z,23.36
2023-06-15T19:32:20.718Z,23.22
2023-06-15T19:34:47.198Z,23.25
2023-06-15T19:37:13.706Z,23.04
2023-06-15T19:39:40.209Z,22.79
2023-06-15T19:42:06.787Z,22.75
2023-06-15T19:44:33.338Z,22.49
2023-06-15T19:46:59.923Z,22.27
2023-06-15T19:49:29.872Z,22.40
2023-06-15T19:51:57.906Z,22.47
2023-06-15T19:54:24.701Z,22.60
2023-06-15T19:56:51.332Z,22.39
2023-06-15T19:59:20.149Z,22.45
2023-06-15T20:01:47.042Z,22.29
2023-06-15T20:04:13.728Z,22.27
2023-06-15T20:06:40.319Z,22.20
2023-06-15T20:09:06.873Z,21.79
2023-06-15T20:11:33.458Z,21.80
2023-06-15T20:14:00.528Z,21.79
2023-06-15T20:16:27.150Z,21.81
2023-06-15T20:18:54.442Z,21.66
2023-06-15T20:21:28.992Z,21.66
2023-06-15T20:23:56.118Z,21.61
2023-06-15T20:26:24.212Z,21.57
2023-06-15T20:28:50.864Z,21.25
2023-06-15T20:31:17.493Z,21.42
2023-06-15T20:33:45.511Z,21.49
2023-06-15T20:36:12.871Z,21.41
2023-06-15T20:38:39.904Z,21.29
2023-06-15T20:41:06.446Z,21.29
2023-06-15T20:43:33.161Z,21.25
2023-06-15T20:46:01.244Z,21.12
2023-06-15T20:48:32.991Z,21.17
2023-06-15T20:51:01.552Z,21.07
2023-06-15T20:53:28.342Z,21.14
2023-06-15T20:55:54.873Z,21.00
2023-06-15T21:00:48.620Z,20.97
2023-06-15T21:03:15.366Z,21.02
2023-06-15T21:05:42.027Z,21.18
2023-06-15T21:08:08.637Z,21.14
2023-06-15T21:10:35.200Z,20.98
2023-06-15T21:13:02.012Z,21.15
2023-06-15T21:15:28.725Z,20.92
2023-06-15T21:17:55.791Z,20.54
2023-06-15T21:20:22.769Z,20.39
2023-06-15T21:22:49.408Z,20.51
2023-06-15T21:25:15.944Z,20.89
2023-06-15T21:27:42.461Z,20.94
2023-06-15T21:30:09.316Z,20.90
2023-06-15T21:32:35.974Z,20.85
2023-06-15T21:35:04.416Z,20.84
2023-06-15T21:37:31.096Z,20.66
2023-06-15T21:39:57.644Z,20.36
2023-06-15T21:42:26.382Z,20.28
2023-06-15T21:44:53.077Z,20.63
2023-06-15T21:47:19.889Z,20.47
2023-06-15T21:49:46.549Z,20.49
2023-06-15T21:52:16.204Z,20.17
2023-06-15T21:54:43.666Z,20.33
2023-06-15T21:57:12.807Z,20.08
2023-06-15T21:59:39.523Z,20.37
2023-06-15T22:02:06.368Z,20.27
2023-06-15T22:04:33.090Z,20.56
2023-06-15T22:06:59.613Z,20.48
2023-06-15T22:09:26.197Z,20.22
2023-06-15T22:11:52.845Z,20.52
2023-06-15T22:14:19.718Z,20.35
2023-06-15T22:16:47.762Z,20.45
2023-06-15T22:19:14.701Z,20.39
2023-06-15T22:21:41.380Z,20.48
2023-06-15T22:24:09.558Z,20.53
2023-06-15T22:26:48.200Z,20.39
2023-06-15T22:29:18.889Z,19.26
2023-06-15T22:31:50.190Z,19.52
2023-06-15T22:34:17.271Z,19.99
2023-06-15T22:36:44.526Z,19.62
2023-06-15T22:39:11.649Z,19.34
2023-06-15T22:41:39.442Z,19.74
2023-06-15T22:44:06.483Z,20.27
2023-06-15T22:46:33.073Z,19.90
2023-06-15T22:48:59.908Z,19.79
2023-06-15T22:51:31.303Z,19.78
2023-06-15T22:53:59.078Z,20.02
2023-06-15T22:56:27.042Z,20.02
2023-06-15T22:58:54.801Z,20.11
2023-06-15T23:01:21.584Z,20.03
2023-06-15T23:03:48.262Z,20.01
2023-06-15T23:06:20.551Z,20.00
2023-06-15T23:08:49.016Z,19.93
2023-06-15T23:11:18.407Z,20.01
2023-06-15T23:13:51.890Z,19.72
2023-06-15T23:16:18.881Z,19.05
2023-06-15T23:18:46.194Z,19.16
2023-06-15T23:21:14.417Z,19.19
2023-06-15T23:23:41.531Z,19.34
2023-06-15T23:26:09.929Z,19.66
2023-06-15T23:28:40.649Z,19.91
2023-06-15T23:31:07.574Z,19.63
2023-06-15T23:33:36.190Z,19.81
2023-06-15T23:36:03.247Z,19.57
2023-06-15T23:38:29.806Z,19.50
2023-06-15T23:40:56.493Z,19.80
2023-06-15T23:43:23.064Z,19.80
2023-06-15T23:45:50.881Z,20.04
2023-06-15T23:48:17.476Z,19.75
2023-06-15T23:50:43.984Z,19.25
2023-06-15T23:53:12.858Z,19.52
2023-06-15T23:55:43.395Z,19.81
2023-06-15T23:58:10.922Z,19.31
